• Join FlightAware (Why Join?)
  • Login
  • US Flag 
01:58AM EDT


 

Airport Tracker/Info


-or-


 

Live Flight TrackerFlight Track Log ✈ AWI3551 ✈ 08-May-2013 ✈ KBUF - KPHL

Flight Track Log - Related Links

Times and Time Zones

All times are in EDT time to prevent confusion due to time zone crossing. See the AWI3551 flight status page for this flight to view local times or setup timezone preferences in your user account.

Time Position Orientation Groundspeed Altitude Reporting Facility
EDT Latitude Longitude Course Direction KTS MPH feet Rate Location/Type
05:30AM 42.9500 -78.7167 173° South 150 173 1,500  Level Buffalo TRACON
05:31AM 42.9833 -78.6500 56° Northeast 191 220 3,700 1,980 Climbing Buffalo TRACON
05:32AM 42.7990 -78.5595 180° South  Level Estimated
05:33AM 42.7283 -78.4742 172° South  Level Estimated
05:33AM 42.8631 -78.6572 183° South 308 354 7,400  Level Cleveland Center
05:34AM 42.6519 -78.5498 216° Southwest  Level FlightAware Approximate
05:34AM 42.7922 -78.6508 176° South 285 328 10,000  Level Cleveland Center
05:35AM 42.5850 -78.4654 173° South  Level Estimated
05:35AM 42.7150 -78.6475 178° South 277 319 12,300  Level Cleveland Center
05:36AM 42.6292 -78.6331 173° South 296 341 14,500 2,340 Climbing Cleveland Center
05:37AM 42.5514 -78.5819 154° Southeast 304 350 17,000 2,160 Climbing Cleveland Center
05:38AM 42.4689 -78.5256 153° Southeast 315 362 18,900 1,800 Climbing Cleveland Center
05:39AM 42.3867 -78.4692 153° Southeast 320 368 20,600 1,680 Climbing Cleveland Center
05:40AM 42.3042 -78.4100 152° Southeast 325 374 22,300 1,200 Climbing Cleveland Center
05:41AM 42.2178 -78.3514 153° Southeast 335 386 23,000 300 Climbing Cleveland Center
05:42AM 42.1269 -78.2903 153° Southeast 347 399 23,000  Level Cleveland Center
05:43AM 42.0422 -78.2317 153° Southeast 347 399 23,000  Level Cleveland Center
05:45AM 41.8872 -78.1264 153° Southeast 345 397 23,000  Level New York Center
05:46AM 41.8053 -78.0728 154° Southeast 345 397 23,000  Level New York Center
05:47AM 41.7233 -78.0164 153° Southeast 345 397 23,000  Level New York Center
05:48AM 41.6414 -77.9578 152° Southeast 340 391 23,000  Level New York Center
05:49AM 41.5572 -77.9014 153° Southeast 335 386 23,000  Level New York Center
05:50AM 41.4772 -77.8486 154° Southeast 330 380 23,000  Level New York Center
05:51AM 41.3950 -77.7931 153° Southeast 330 380 23,000  Level New York Center
05:52AM 41.3167 -77.7406 153° Southeast 330 380 23,000  Level New York Center
05:53AM 41.2367 -77.6856 153° Southeast 330 380 23,000  Level New York Center
05:54AM 41.1583 -77.6333 153° Southeast 330 380 23,000  Level New York Center
05:55AM 41.0803 -77.5814 153° Southeast 330 380 23,000 -300 Level New York Center
05:56AM 41.0019 -77.5294 153° Southeast 324 373 22,500 -1,020 Descending New York Center
05:57AM 40.9256 -77.4781 153° Southeast 318 366 21,000 -1,500 Descending New York Center
05:58AM 40.8472 -77.4264 153° Southeast 313 360 19,500 -1,440 Descending New York Center
05:59AM 40.7647 -77.3717 153° Southeast 319 367 18,100 -780 Descending New York Center
06:00AM 40.6842 -77.3231 155° Southeast 319 367 18,000 -60 Descending New York Center
06:01AM 40.6056 -77.2717 154° Southeast 319 367 18,000  Level New York Center
06:02AM 40.5353 -77.2242 153° Southeast 314 361 18,000  Level New York Center
06:03AM 40.4528 -77.1700 153° Southeast 309 356 18,000  Level New York Center
06:04AM 40.3903 -77.1289 153° Southeast 293 337 18,000 -300 Level New York Center
06:05AM 40.3119 -77.0781 154° Southeast 288 331 17,400 -1,080 Descending New York Center
06:06AM 40.2761 -77.0039 122° Southeast 274 315 15,900 -1,980 Descending New York Center
06:07AM 40.2547 -76.8933 104° East 268 308 13,500 -2,340 Descending New York Center
06:08AM 40.2539 -76.7925 91° East 273 314 11,300 -1,800 Descending New York Center
06:09AM 40.2689 -76.6986 78° East 273 314 10,000 -720 Descending New York Center
06:10AM 40.2697 -76.6006 89° East 268 308 9,900 -60 Descending New York Center
06:11AM 40.2425 -76.5169 113° Southeast 259 298 9,900  Level New York Center
06:12AM 40.2200 -76.4225 107° East 252 290 9,900  Level New York Center
06:13AM 40.2011 -76.3339 106° East 257 296 9,900  Level New York Center
06:14AM 40.1842 -76.2539 105° East 257 296 10,000 -180 Climbing New York Center
06:15AM 40.1617 -76.1517 106° East 257 296 9,600 -780 Descending New York Center
06:16AM 40.1447 -76.0661 104° East 250 288 8,500 -840 Descending New York Center
06:17AM 40.1258 -75.9750 105° East 251 289 8,000 -240 Descending New York Center
06:18AM 40.1067 -75.8867 106° East 251 289 8,100  Climbing New York Center
06:19AM 40.0878 -75.7958 105° East 251 289 8,000  Descending New York Center
06:20AM 40.1142 -75.7161 67° East 225 259 8,100  Climbing New York Center
06:21AM 40.1742 -75.6769 27° Northeast 207 238 8,000 -60 Descending New York Center
06:22AM 40.2339 -75.6431 23° Northeast 237 273 8,000 -480 Level New York Center
06:23AM 40.2739 -75.5833 49° Northeast 223 257 7,100 -540 Descending New York Center
06:24AM 40.2917 -75.5003 74° East 205 236 7,000 -60 Descending New York Center
06:25AM 40.3031 -75.4247 79° East 205 236 7,000  Level New York Center
06:26AM 40.2475 -75.4075 167° South 174 200 7,000 -420 Level New York Center
06:27AM 40.1847 -75.4142 185° South 209 241 6,200 -480 Descending New York Center
06:28AM 40.1242 -75.4183 183° South 219 252 6,100 -60 Descending New York Center
06:29AM 40.0656 -75.4197 181° South 219 252 6,100 -60 Level New York Center
06:31AM 39.9333 -75.4167 179° South 242 278 6,000 -120 Descending Philadelphia TRACON
06:32AM 39.9167 -75.5000 255° West 245 282 5,800 -480 Descending Philadelphia TRACON
06:33AM 39.9000 -75.5833 255° West 189 217 5,100 -360 Descending Philadelphia TRACON
06:34AM 39.8833 -75.6500 252° West 196 226 5,100  Level Philadelphia TRACON
06:35AM 39.8667 -75.7167 252° West 191 220 5,100 -60 Level Philadelphia TRACON
06:36AM 39.8500 -75.7833 252° West 196 226 5,000 -300 Descending Philadelphia TRACON
06:37AM 39.8167 -75.7833 180° South 167 192 4,600 -540 Descending Philadelphia TRACON
06:38AM 39.7833 -75.7500 142° Southeast 160 184 4,000 -300 Descending Philadelphia TRACON
06:39AM 39.7833 -75.6833 90° East 171 197 4,000  Level Philadelphia TRACON
06:40AM 39.7833 -75.6333 90° East 168 193 4,000  Level Philadelphia TRACON
06:41AM 39.8000 -75.5667 72° East 171 197 4,000 -120 Level Philadelphia TRACON
06:42AM 39.8167 -75.5167 67° East 168 193 3,800 -240 Descending Philadelphia TRACON